Time;durP1;ratioP1;P1;durP2;ratioP2;P2;SDS_P1;SDS_P2;PMS_P1;PMS_P2;Temp;Humidity;BMP_temperature;BMP_pressure;BME280_temperature;BME280_humidity;BME280_pressure;Samples;Min_cycle;Max_cycle;Signal;HPM_P1;HPM_P2
2021/11/28 00:00:14;;;;;;;16.13;12.88;;;9.50;86.80;;;;;;5034667;28;20408;-60
2021/11/28 00:02:40;;;;;;;15.95;13.05;;;9.50;86.90;;;;;;5041477;28;20489;-58
2021/11/28 00:05:06;;;;;;;15.35;12.38;;;9.50;86.80;;;;;;5034366;28;20030;-60
2021/11/28 00:10:45;;;;;;;17.50;13.45;;;9.40;86.80;;;;;;5048101;28;20028;-60
2021/11/28 00:13:04;;;;;;;14.95;12.82;;;9.40;86.80;;;;;;5053634;28;20409;-60
2021/11/28 00:15:31;;;;;;;15.68;12.30;;;9.40;86.80;;;;;;5054063;28;20017;-60
2021/11/28 00:17:57;;;;;;;16.92;13.07;;;9.40;86.70;;;;;;5054076;28;20108;-60
2021/11/28 00:20:23;;;;;;;16.35;12.98;;;9.40;86.80;;;;;;5054158;28;20528;-60
2021/11/28 00:22:49;;;;;;;15.75;12.77;;;9.40;86.80;;;;;;5054113;28;20029;-60
2021/11/28 00:25:18;;;;;;;19.45;13.40;;;9.40;86.80;;;;;;5045712;28;20033;-60
2021/11/28 00:27:46;;;;;;;18.15;13.93;;;9.40;86.80;;;;;;5042277;28;20022;-60
2021/11/28 00:30:22;;;;;;;16.63;12.95;;;9.30;86.90;;;;;;5046905;28;20126;-60
2021/11/28 00:32:48;;;;;;;17.10;12.85;;;9.40;86.90;;;;;;5053098;28;20094;-60
2021/11/28 00:35:14;;;;;;;15.07;12.48;;;9.30;86.90;;;;;;5053881;28;20028;-60
2021/11/28 00:37:40;;;;;;;20.02;12.93;;;9.30;86.80;;;;;;5034595;28;20025;-60
2021/11/28 00:40:06;;;;;;;13.40;11.75;;;9.30;87.00;;;;;;5033671;28;20097;-60
2021/11/28 00:42:32;;;;;;;14.95;12.40;;;9.30;86.80;;;;;;5052461;28;20037;-60
2021/11/28 00:44:57;;;;;;;15.82;12.88;;;9.30;86.80;;;;;;5053464;28;20029;-60
2021/11/28 00:47:24;;;;;;;17.45;13.52;;;9.30;86.70;;;;;;5053690;28;20146;-60
2021/11/28 00:52:35;;;;;;;16.95;13.82;;;9.30;86.80;;;;;;5053699;28;20083;-60
2021/11/28 00:55:03;;;;;;;18.08;14.10;;;9.20;86.70;;;;;;5053789;28;20481;-60
2021/11/28 00:57:29;;;;;;;16.48;13.13;;;9.20;86.90;;;;;;5053783;28;20028;-60
2021/11/28 00:59:55;;;;;;;15.80;13.07;;;9.20;86.90;;;;;;5033762;28;20035;-60
2021/11/28 01:02:22;;;;;;;18.83;14.40;;;9.20;86.80;;;;;;5033584;28;20068;-60
2021/11/28 01:04:48;;;;;;;16.35;12.95;;;9.20;86.70;;;;;;5033496;28;20053;-60
2021/11/28 01:07:14;;;;;;;17.30;13.15;;;9.20;86.60;;;;;;5033595;28;20043;-60
2021/11/28 01:09:40;;;;;;;15.77;12.48;;;9.20;86.70;;;;;;5033733;28;20517;-60
2021/11/28 01:12:07;;;;;;;14.95;12.10;;;9.20;86.60;;;;;;5033331;28;20025;-60
2021/11/28 01:14:34;;;;;;;15.98;12.30;;;9.20;86.60;;;;;;5045309;28;20048;-60
2021/11/28 01:17:00;;;;;;;15.82;13.82;;;9.20;86.40;;;;;;5053385;28;20021;-62
2021/11/28 01:19:26;;;;;;;17.73;14.65;;;9.20;86.50;;;;;;5053193;28;20036;-60
2021/11/28 01:22:12;;;;;;;16.55;13.57;;;9.20;86.60;;;;;;5053283;28;20453;-60
2021/11/28 01:24:38;;;;;;;16.73;14.07;;;9.20;86.30;;;;;;5053461;28;20059;-60
2021/11/28 01:27:06;;;;;;;17.30;13.82;;;9.20;86.50;;;;;;5053235;28;20027;-59
2021/11/28 01:29:32;;;;;;;15.00;13.30;;;9.20;86.50;;;;;;5045263;28;20111;-59
2021/11/28 01:32:02;;;;;;;15.10;12.27;;;9.20;86.60;;;;;;5036001;28;20484;-60
2021/11/28 01:34:31;;;;;;;13.40;11.05;;;9.20;86.40;;;;;;5037409;28;20033;-60
2021/11/28 01:36:57;;;;;;;17.98;12.45;;;9.20;86.40;;;;;;5052861;28;20384;-60
2021/11/28 01:39:23;;;;;;;12.38;10.82;;;9.20;86.10;;;;;;5053090;28;20032;-60
2021/11/28 01:41:49;;;;;;;16.30;12.07;;;9.20;86.10;;;;;;5056688;28;20049;-60
2021/11/28 01:44:15;;;;;;;15.05;12.43;;;9.20;86.00;;;;;;5057360;28;20097;-60
2021/11/28 01:46:41;;;;;;;15.63;12.60;;;9.20;86.00;;;;;;5056274;28;20052;-60
2021/11/28 01:49:10;;;;;;;15.02;12.48;;;9.20;86.00;;;;;;5057023;28;20059;-60
2021/11/28 01:51:38;;;;;;;17.00;14.25;;;9.10;86.00;;;;;;5056796;28;20053;-60
2021/11/28 01:54:14;;;;;;;19.33;14.85;;;9.10;86.00;;;;;;5056861;28;20035;-60
2021/11/28 01:56:46;;;;;;;20.50;16.55;;;9.10;86.00;;;;;;5055526;28;20043;-60
2021/11/28 01:59:14;;;;;;;22.58;18.00;;;9.10;86.10;;;;;;5056763;28;20349;-60
2021/11/28 02:01:40;;;;;;;21.05;16.88;;;9.10;86.10;;;;;;5056895;28;20029;-60
2021/11/28 02:04:07;;;;;;;20.02;16.20;;;9.00;86.10;;;;;;5055923;28;20402;-60
2021/11/28 02:06:33;;;;;;;19.10;16.40;;;9.00;86.20;;;;;;5056859;28;20453;-59
2021/11/28 02:08:59;;;;;;;23.90;18.08;;;9.00;86.30;;;;;;5056531;28;20017;-60
2021/11/28 02:11:26;;;;;;;22.25;17.98;;;9.00;86.40;;;;;;5056609;28;20518;-60
2021/11/28 02:13:52;;;;;;;22.35;17.52;;;9.00;86.60;;;;;;5056610;28;20025;-60
2021/11/28 02:16:17;;;;;;;24.00;19.25;;;9.00;86.40;;;;;;5056555;28;20078;-60
2021/11/28 02:18:43;;;;;;;27.20;21.75;;;9.00;86.40;;;;;;5056562;28;20453;-60
2021/11/28 02:21:11;;;;;;;23.70;20.75;;;9.00;86.40;;;;;;5055411;28;20481;-60
2021/11/28 02:23:38;;;;;;;22.80;20.33;;;9.00;86.30;;;;;;5056163;28;20032;-59
2021/11/28 02:26:07;;;;;;;23.52;19.38;;;9.00;86.30;;;;;;5040797;28;20484;-60
2021/11/28 02:28:35;;;;;;;21.33;17.25;;;9.00;86.40;;;;;;5055948;28;20013;-60
2021/11/28 02:31:01;;;;;;;20.70;17.27;;;9.00;86.30;;;;;;5056179;28;20024;-60
2021/11/28 02:33:27;;;;;;;19.48;16.42;;;9.00;86.30;;;;;;5055979;28;20025;-60
2021/11/28 02:35:52;;;;;;;19.45;15.65;;;9.00;86.30;;;;;;5050469;28;20490;-60
2021/11/28 02:38:18;;;;;;;16.33;14.23;;;8.90;86.40;;;;;;5054850;28;20084;-60
2021/11/28 02:40:45;;;;;;;17.10;13.95;;;9.00;86.50;;;;;;5055703;28;20069;-60
2021/11/28 02:43:11;;;;;;;19.70;15.00;;;9.00;86.50;;;;;;5055834;28;20396;-60
2021/11/28 02:45:38;;;;;;;15.45;13.18;;;9.00;86.40;;;;;;5055249;28;20445;-60
2021/11/28 02:48:08;;;;;;;14.75;12.90;;;9.00;86.20;;;;;;5055475;28;20032;-60
2021/11/28 02:50:35;;;;;;;15.00;12.05;;;9.00;86.10;;;;;;5055385;28;20017;-60
2021/11/28 02:53:04;;;;;;;15.43;12.45;;;8.90;85.90;;;;;;5054955;28;20025;-60
2021/11/28 02:55:37;;;;;;;14.38;12.23;;;8.90;85.90;;;;;;5051715;28;20025;-60
2021/11/28 02:58:04;;;;;;;15.20;12.00;;;8.90;85.90;;;;;;5055688;28;20135;-60
2021/11/28 03:00:34;;;;;;;15.30;12.10;;;8.90;86.00;;;;;;5055633;28;20051;-59
2021/11/28 03:03:00;;;;;;;13.93;11.75;;;8.90;86.10;;;;;;5055535;28;20039;-60
2021/11/28 03:05:26;;;;;;;16.60;12.48;;;8.90;86.00;;;;;;5040817;28;20351;-60
2021/11/28 03:07:52;;;;;;;16.42;12.35;;;8.90;86.00;;;;;;5035428;28;20389;-60
2021/11/28 03:10:28;;;;;;;15.00;12.02;;;8.80;85.90;;;;;;5041784;28;20025;-60
2021/11/28 03:12:55;;;;;;;16.48;12.88;;;8.80;85.70;;;;;;5055264;28;20057;-59
2021/11/28 03:15:24;;;;;;;15.50;13.25;;;8.80;85.80;;;;;;5039016;28;20029;-60
2021/11/28 03:17:50;;;;;;;16.08;12.77;;;8.80;85.50;;;;;;5035385;28;20104;-60
2021/11/28 03:20:17;;;;;;;16.98;13.35;;;8.80;85.60;;;;;;5035562;28;20104;-60
2021/11/28 03:22:51;;;;;;;17.15;13.50;;;8.80;85.70;;;;;;5035161;28;20056;-60
2021/11/28 03:25:19;;;;;;;17.42;14.52;;;8.80;85.60;;;;;;5035155;28;20014;-60
2021/11/28 03:27:45;;;;;;;15.82;13.07;;;8.80;85.50;;;;;;5042468;28;20021;-60
2021/11/28 03:30:15;;;;;;;16.05;13.00;;;8.70;85.50;;;;;;5055023;28;20024;-60
2021/11/28 03:32:41;;;;;;;18.65;13.70;;;8.70;85.40;;;;;;5054887;28;20044;-60
2021/11/28 03:35:07;;;;;;;13.57;11.95;;;8.70;85.50;;;;;;5046118;28;20025;-60
2021/11/28 03:37:33;;;;;;;17.13;15.32;;;8.70;85.30;;;;;;5053516;28;20036;-60
2021/11/28 03:40:00;;;;;;;17.15;15.35;;;8.70;85.50;;;;;;5042925;28;20033;-60
2021/11/28 03:42:26;;;;;;;14.38;12.70;;;8.70;85.50;;;;;;5053491;28;20032;-60
2021/11/28 03:44:52;;;;;;;14.93;12.93;;;8.70;85.30;;;;;;5044290;28;20068;-60
2021/11/28 03:47:19;;;;;;;15.55;13.32;;;8.70;85.10;;;;;;5054604;28;20033;-60
2021/11/28 03:49:45;;;;;;;16.92;13.23;;;8.60;85.10;;;;;;5054694;28;20025;-60
2021/11/28 03:52:11;;;;;;;17.73;13.93;;;8.70;85.10;;;;;;5054549;28;20029;-60
2021/11/28 03:54:37;;;;;;;15.48;13.85;;;8.60;85.10;;;;;;5054627;28;20376;-60
2021/11/28 03:57:04;;;;;;;15.90;13.15;;;8.60;84.80;;;;;;5054360;28;20100;-60
2021/11/28 03:59:30;;;;;;;14.85;12.57;;;8.60;84.80;;;;;;5051252;28;20480;-60
2021/11/28 04:01:57;;;;;;;17.55;13.27;;;8.60;84.70;;;;;;5034040;28;20037;-59
2021/11/28 04:04:23;;;;;;;19.42;15.95;;;8.60;84.60;;;;;;5034043;28;20021;-60
2021/11/28 04:06:48;;;;;;;18.23;15.07;;;8.60;84.60;;;;;;5034363;28;20082;-60
2021/11/28 04:09:14;;;;;;;20.27;16.77;;;8.50;84.50;;;;;;5034467;28;20021;-60
2021/11/28 04:11:40;;;;;;;21.05;15.18;;;8.50;84.60;;;;;;5034222;28;20025;-60
2021/11/28 04:14:06;;;;;;;19.05;14.63;;;8.50;84.60;;;;;;5034192;28;20160;-60
2021/11/28 04:16:32;;;;;;;18.52;15.00;;;8.50;84.40;;;;;;5050043;28;20028;-59
2021/11/28 04:18:59;;;;;;;16.70;14.30;;;8.50;84.20;;;;;;5054415;28;20469;-60
2021/11/28 04:21:26;;;;;;;17.77;13.93;;;8.50;83.90;;;;;;5054297;28;20513;-60
2021/11/28 04:23:53;;;;;;;17.58;13.38;;;8.50;83.50;;;;;;5053996;28;20016;-60
2021/11/28 04:26:20;;;;;;;20.48;15.40;;;8.40;83.20;;;;;;5054054;28;20465;-60
2021/11/28 04:28:46;;;;;;;26.38;20.67;;;8.40;83.30;;;;;;5053800;28;20028;-59
2021/11/28 04:31:12;;;;;;;26.27;21.60;;;8.30;83.40;;;;;;5053860;28;20457;-60
2021/11/28 04:33:38;;;;;;;25.92;20.80;;;8.30;83.60;;;;;;5051004;28;20079;-59
2021/11/28 04:36:04;;;;;;;23.85;18.13;;;8.20;83.20;;;;;;5038423;28;20103;-58
2021/11/28 04:38:31;;;;;;;19.10;16.65;;;8.20;82.60;;;;;;5048937;28;20100;-60
2021/11/28 04:40:56;;;;;;;22.92;17.17;;;8.10;82.60;;;;;;5043813;28;20572;-60
2021/11/28 04:43:23;;;;;;;18.73;14.63;;;8.00;83.00;;;;;;5053823;28;20100;-60
2021/11/28 04:45:49;;;;;;;19.38;14.27;;;8.00;83.10;;;;;;5042451;28;20030;-60
2021/11/28 04:48:15;;;;;;;20.75;15.23;;;8.00;83.80;;;;;;5051804;28;20021;-60
2021/11/28 04:50:41;;;;;;;16.92;13.23;;;8.00;83.10;;;;;;5052563;28;20527;-60
2021/11/28 04:53:07;;;;;;;19.70;14.05;;;8.00;83.00;;;;;;5053673;28;20020;-60
2021/11/28 04:55:33;;;;;;;18.13;14.30;;;7.90;82.90;;;;;;5053955;28;20485;-60
2021/11/28 04:57:59;;;;;;;27.25;21.17;;;7.90;83.10;;;;;;5053498;28;20037;-60
2021/11/28 05:00:26;;;;;;;26.52;20.17;;;7.90;83.20;;;;;;5047876;28;20052;-60
2021/11/28 05:02:55;;;;;;;28.00;18.45;;;7.90;83.40;;;;;;5038298;28;20133;-60
2021/11/28 05:05:21;;;;;;;24.83;19.60;;;7.90;83.40;;;;;;5053799;28;20485;-59
2021/11/28 05:07:47;;;;;;;32.83;16.08;;;7.90;83.40;;;;;;5047517;28;20049;-60
2021/11/28 05:10:13;;;;;;;27.83;14.10;;;7.90;83.30;;;;;;5033719;28;20021;-60
2021/11/28 05:12:40;;;;;;;28.45;12.63;;;7.90;83.20;;;;;;5033597;28;20025;-60
2021/11/28 05:15:06;;;;;;;18.48;13.07;;;8.00;83.20;;;;;;5036570;28;20021;-60
2021/11/28 05:17:32;;;;;;;66.63;14.70;;;7.90;83.10;;;;;;5037564;28;20029;-60
2021/11/28 05:19:58;;;;;;;31.67;12.38;;;8.00;82.90;;;;;;5037501;28;20026;-60
2021/11/28 05:22:25;;;;;;;49.35;12.82;;;7.90;82.80;;;;;;5037430;28;20275;-60
2021/11/28 05:24:52;;;;;;;22.10;10.82;;;7.90;82.70;;;;;;5044385;28;20020;-60
2021/11/28 05:27:18;;;;;;;36.65;11.43;;;7.90;82.60;;;;;;5057645;28;20105;-60
2021/11/28 05:29:45;;;;;;;24.00;10.98;;;7.90;83.00;;;;;;5057401;28;20029;-60
2021/11/28 05:32:11;;;;;;;24.58;10.48;;;7.90;82.20;;;;;;5037799;28;20052;-60
2021/11/28 05:34:37;;;;;;;40.70;11.82;;;7.90;82.30;;;;;;5037093;28;20029;-60
2021/11/28 05:37:03;;;;;;;30.50;11.95;;;7.90;82.20;;;;;;5045255;28;20025;-60
2021/11/28 05:39:29;;;;;;;22.30;11.85;;;7.90;82.20;;;;;;5057001;28;20033;-60
2021/11/28 05:41:55;;;;;;;17.25;11.38;;;7.80;82.30;;;;;;5051414;28;20080;-60
2021/11/28 05:44:20;;;;;;;43.63;13.40;;;7.80;82.20;;;;;;5037198;28;20365;-60
2021/11/28 05:46:46;;;;;;;45.03;13.48;;;7.80;82.10;;;;;;5046621;28;20029;-60
2021/11/28 05:49:12;;;;;;;17.80;12.05;;;7.80;81.80;;;;;;5051617;28;20469;-59
2021/11/28 05:51:38;;;;;;;16.65;11.73;;;7.80;82.00;;;;;;5048091;28;20453;-60
2021/11/28 05:54:04;;;;;;;34.08;12.85;;;7.80;82.20;;;;;;5055477;28;20029;-60
2021/11/28 05:56:30;;;;;;;34.00;13.40;;;7.80;82.10;;;;;;5036912;28;20029;-60
2021/11/28 05:58:57;;;;;;;20.77;11.77;;;7.80;81.90;;;;;;5047531;28;20029;-60
2021/11/28 06:01:23;;;;;;;41.88;13.98;;;7.80;82.00;;;;;;5036359;28;20037;-60
2021/11/28 06:03:49;;;;;;;24.77;13.10;;;7.80;81.90;;;;;;5036994;28;20339;-60
2021/11/28 06:06:14;;;;;;;20.08;12.68;;;7.80;81.80;;;;;;5048230;28;20421;-60
2021/11/28 06:08:41;;;;;;;20.95;13.27;;;7.80;81.80;;;;;;5045096;28;20109;-60
2021/11/28 06:11:07;;;;;;;32.67;14.27;;;7.80;81.90;;;;;;5056373;28;20025;-60
2021/11/28 06:13:34;;;;;;;27.85;14.82;;;7.80;81.70;;;;;;5044833;28;20040;-59
2021/11/28 06:16:00;;;;;;;26.92;15.15;;;7.80;81.60;;;;;;5056339;28;20025;-60
2021/11/28 06:18:25;;;;;;;30.85;16.30;;;7.80;81.50;;;;;;5056352;28;20024;-60
2021/11/28 06:20:51;;;;;;;34.08;17.23;;;7.80;81.30;;;;;;5056232;28;20361;-60
2021/11/28 06:23:17;;;;;;;27.42;15.88;;;7.80;81.40;;;;;;5056256;28;20087;-60
2021/11/28 06:25:43;;;;;;;21.95;15.48;;;7.80;81.50;;;;;;5055382;28;20017;-60
2021/11/28 06:28:09;;;;;;;31.52;17.73;;;7.80;81.90;;;;;;5056071;28;20036;-60
2021/11/28 06:30:35;;;;;;;35.45;20.10;;;7.80;81.90;;;;;;5046374;28;20041;-59
2021/11/28 06:33:00;;;;;;;47.47;20.90;;;7.90;81.80;;;;;;5035267;28;20026;-60
2021/11/28 06:35:27;;;;;;;71.65;21.05;;;7.90;81.70;;;;;;5035269;28;20490;-60
2021/11/28 06:37:52;;;;;;;52.03;19.48;;;7.90;81.00;;;;;;5055557;28;20408;-60
2021/11/28 06:40:18;;;;;;;42.15;18.60;;;7.80;80.90;;;;;;5055302;28;20128;-60
2021/11/28 06:42:44;;;;;;;54.83;20.33;;;7.70;81.10;;;;;;5055715;28;20040;-59
2021/11/28 06:45:11;;;;;;;50.85;19.40;;;7.70;81.50;;;;;;5055911;28;20029;-60
2021/11/28 06:47:37;;;;;;;40.70;16.90;;;7.70;81.60;;;;;;5055694;28;20063;-60
2021/11/28 06:50:04;;;;;;;38.65;11.77;;;7.70;81.60;;;;;;5039001;28;20026;-60
2021/11/28 06:52:30;;;;;;;52.72;12.23;;;7.70;81.10;;;;;;5035743;28;20120;-60
2021/11/28 06:54:55;;;;;;;33.78;10.85;;;7.50;80.50;;;;;;5035793;28;20072;-60
2021/11/28 06:57:21;;;;;;;24.17;12.18;;;7.40;80.90;;;;;;5035611;28;20385;-60
2021/11/28 06:59:47;;;;;;;22.08;12.10;;;7.30;81.80;;;;;;5035525;28;20112;-60
2021/11/28 07:02:13;;;;;;;39.92;10.88;;;7.20;82.40;;;;;;5039436;28;20469;-60
2021/11/28 07:04:40;;;;;;;54.75;13.07;;;7.30;82.80;;;;;;5035573;28;20021;-58
2021/11/28 07:07:06;;;;;;;34.65;12.10;;;7.30;83.00;;;;;;5045760;28;20040;-59
2021/11/28 07:09:32;;;;;;;33.42;13.73;;;7.40;82.90;;;;;;5053204;28;20021;-60
2021/11/28 07:11:57;;;;;;;59.85;13.48;;;7.40;82.90;;;;;;5050046;28;20036;-60
2021/11/28 07:14:23;;;;;;;39.50;11.05;;;7.50;82.90;;;;;;5049903;28;20033;-60
2021/11/28 07:16:49;;;;;;;61.67;12.10;;;7.50;82.60;;;;;;5050293;28;20448;-60
2021/11/28 07:19:15;;;;;;;56.75;11.52;;;7.50;82.50;;;;;;5055101;28;20090;-60
2021/11/28 07:21:41;;;;;;;75.38;12.32;;;7.50;82.40;;;;;;5055207;28;20025;-60
2021/11/28 07:24:07;;;;;;;60.88;10.88;;;7.50;82.30;;;;;;5045931;28;20365;-60
2021/11/28 07:26:32;;;;;;;59.03;10.35;;;7.40;82.40;;;;;;5035010;28;20025;-60
2021/11/28 07:28:58;;;;;;;55.47;10.02;;;7.40;82.60;;;;;;5033801;28;20037;-60
2021/11/28 07:31:24;;;;;;;71.78;12.10;;;7.40;82.20;;;;;;5043232;28;20495;-60
2021/11/28 07:33:50;;;;;;;62.40;10.48;;;7.30;82.40;;;;;;5054879;28;20147;-60
2021/11/28 07:36:16;;;;;;;58.50;9.57;;;7.30;82.30;;;;;;5053710;28;20017;-59
2021/11/28 07:38:44;;;;;;;65.00;10.68;;;7.20;82.60;;;;;;5050024;28;20047;-60
2021/11/28 07:41:11;;;;;;;56.90;9.98;;;7.10;82.70;;;;;;5053410;28;20037;-60
2021/11/28 07:43:37;;;;;;;50.70;10.05;;;7.10;83.60;;;;;;5054867;28;20384;-60
2021/11/28 07:46:03;;;;;;;44.08;10.05;;;7.00;83.50;;;;;;5054658;28;20060;-60
2021/11/28 07:48:29;;;;;;;32.58;9.93;;;6.90;83.90;;;;;;5054618;28;20032;-60
2021/11/28 07:50:58;;;;;;;22.17;11.05;;;6.90;84.40;;;;;;5054664;28;20380;-60
2021/11/28 07:53:24;;;;;;;37.90;10.88;;;6.90;84.80;;;;;;5054624;28;20075;-60
2021/11/28 07:55:50;;;;;;;33.63;9.63;;;7.00;85.20;;;;;;5054739;28;20029;-60
2021/11/28 07:58:16;;;;;;;37.97;9.93;;;7.00;84.60;;;;;;5036420;28;20033;-59
2021/11/28 08:00:41;;;;;;;50.72;10.02;;;6.90;84.30;;;;;;5034236;28;20385;-60
2021/11/28 08:03:07;;;;;;;70.00;15.15;;;6.80;84.40;;;;;;5034397;28;20072;-60
2021/11/28 08:05:33;;;;;;;49.70;14.07;;;6.80;84.30;;;;;;5034524;28;20017;-60
2021/11/28 08:07:59;;;;;;;46.17;13.40;;;6.60;84.30;;;;;;5043472;28;20025;-62
2021/11/28 08:10:25;;;;;;;68.20;18.48;;;6.50;85.00;;;;;;5054325;28;20036;-61
2021/11/28 08:12:51;;;;;;;62.97;17.10;;;6.40;85.70;;;;;;5054053;28;20044;-60
2021/11/28 08:15:18;;;;;;;49.17;15.38;;;6.30;86.30;;;;;;5050503;28;20029;-60
2021/11/28 08:17:49;;;;;;;39.13;12.57;;;6.30;86.90;;;;;;5053541;28;20480;-60
2021/11/28 08:20:16;;;;;;;36.05;9.57;;;6.30;87.20;;;;;;5041539;28;20041;-60
2021/11/28 08:22:45;;;;;;;31.48;8.35;;;6.30;87.40;;;;;;5033966;28;20021;-60
2021/11/28 08:25:14;;;;;;;31.17;7.28;;;6.30;87.50;;;;;;5049077;28;20435;-60
2021/11/28 08:27:41;;;;;;;37.08;7.93;;;6.30;87.70;;;;;;5046021;28;20380;-60
2021/11/28 08:30:12;;;;;;;18.23;7.20;;;6.30;88.00;;;;;;5033917;28;20021;-58
2021/11/28 08:32:39;;;;;;;31.13;7.90;;;6.40;88.80;;;;;;5038853;28;20143;-59
2021/11/28 08:35:09;;;;;;;23.42;7.40;;;6.40;88.90;;;;;;5034241;28;20044;-60
2021/11/28 08:37:35;;;;;;;44.25;9.10;;;6.50;89.20;;;;;;5052387;28;20029;-58
2021/11/28 08:40:05;;;;;;;29.40;8.05;;;6.60;89.50;;;;;;5040726;28;20029;-60
2021/11/28 08:42:33;;;;;;;11.10;7.10;;;6.70;89.80;;;;;;5034198;28;20113;-59
2021/11/28 08:45:08;;;;;;;20.60;6.72;;;6.80;90.00;;;;;;5050041;28;20040;-60
2021/11/28 08:47:34;;;;;;;34.13;9.13;;;7.00;90.00;;;;;;5053760;28;20032;-60
2021/11/28 08:50:01;;;;;;;21.35;8.95;;;7.10;90.00;;;;;;5035805;28;20107;-59
2021/11/28 08:52:27;;;;;;;26.35;7.82;;;7.20;90.00;;;;;;5034085;28;20040;-60
2021/11/28 08:54:53;;;;;;;16.35;8.18;;;7.30;90.00;;;;;;5033694;28;20036;-60
2021/11/28 08:57:18;;;;;;;19.30;8.55;;;7.40;90.10;;;;;;5033547;28;20025;-60
2021/11/28 08:59:45;;;;;;;42.88;10.70;;;7.50;90.10;;;;;;5033784;28;20373;-60
2021/11/28 09:02:11;;;;;;;19.55;8.73;;;7.60;89.80;;;;;;5033432;28;20026;-60
2021/11/28 09:04:39;;;;;;;45.88;11.55;;;7.70;89.40;;;;;;5033688;28;20028;-60
2021/11/28 09:07:05;;;;;;;27.73;10.00;;;7.70;88.80;;;;;;5033469;28;20109;-60
2021/11/28 09:09:31;;;;;;;46.85;11.68;;;7.70;88.70;;;;;;5033527;28;20061;-60
2021/11/28 09:11:58;;;;;;;31.35;10.93;;;7.70;88.80;;;;;;5033624;28;20026;-60
2021/11/28 09:14:23;;;;;;;29.05;12.43;;;7.70;89.00;;;;;;5033710;28;20025;-60
2021/11/28 09:16:49;;;;;;;37.40;12.25;;;7.70;89.70;;;;;;5036658;28;20038;-60
2021/11/28 09:19:23;;;;;;;25.58;11.20;;;7.70;89.70;;;;;;5033403;28;20420;-60
2021/11/28 09:21:49;;;;;;;19.95;11.43;;;7.70;89.90;;;;;;5051905;28;20108;-60
2021/11/28 09:27:13;;;;;;;21.10;14.43;;;7.80;90.50;;;;;;5032089;28;20547;-60
2021/11/28 09:29:45;;;;;;;20.27;13.23;;;7.80;90.30;;;;;;5033364;28;20481;-60
2021/11/28 09:32:15;;;;;;;26.45;18.10;;;7.90;90.40;;;;;;5033707;28;20469;-60
2021/11/28 09:34:41;;;;;;;28.08;14.90;;;7.90;90.40;;;;;;5032747;28;20064;-60
2021/11/28 09:37:11;;;;;;;37.15;21.35;;;8.00;90.30;;;;;;5035014;28;20037;-60
2021/11/28 09:39:38;;;;;;;24.58;18.02;;;8.00;90.40;;;;;;5046456;28;20037;-60
2021/11/28 09:42:07;;;;;;;24.83;16.90;;;8.10;90.50;;;;;;5053035;28;20148;-60
2021/11/28 09:44:37;;;;;;;27.42;18.42;;;8.10;90.60;;;;;;5048729;28;20053;-60
2021/11/28 09:47:05;;;;;;;21.52;16.15;;;8.20;90.80;;;;;;5051021;28;20021;-59
2021/11/28 09:49:32;;;;;;;26.48;17.33;;;8.30;90.90;;;;;;5053339;28;20064;-60
2021/11/28 09:52:04;;;;;;;18.92;14.13;;;8.40;91.00;;;;;;5053065;28;20425;-60
2021/11/28 09:54:31;;;;;;;24.90;16.98;;;8.50;90.70;;;;;;5053039;28;20072;-60
2021/11/28 09:56:56;;;;;;;21.05;15.48;;;8.60;90.60;;;;;;5052352;28;20062;-60
2021/11/28 09:59:22;;;;;;;17.58;13.85;;;8.70;90.40;;;;;;5053008;28;20025;-60
2021/11/28 10:01:49;;;;;;;18.73;13.80;;;8.70;90.40;;;;;;5054313;28;20481;-60
2021/11/28 10:04:15;;;;;;;27.20;17.35;;;8.70;90.50;;;;;;5037365;28;20048;-60
2021/11/28 10:06:41;;;;;;;20.27;15.88;;;8.80;90.50;;;;;;5048029;28;20050;-60
2021/11/28 10:09:08;;;;;;;19.10;13.85;;;8.80;90.30;;;;;;5055415;28;20376;-60
2021/11/28 10:11:40;;;;;;;17.90;13.88;;;8.80;90.40;;;;;;5047478;28;20029;-60
2021/11/28 10:14:09;;;;;;;25.90;16.80;;;8.90;90.30;;;;;;5049856;28;20404;-59
2021/11/28 10:16:35;;;;;;;22.08;15.63;;;8.90;90.30;;;;;;5056209;28;20036;-59
2021/11/28 10:19:02;;;;;;;24.52;16.85;;;8.90;90.30;;;;;;5055120;28;20112;-59
2021/11/28 10:21:28;;;;;;;24.70;18.52;;;8.90;90.30;;;;;;5055852;28;20393;-60
2021/11/28 10:24:15;;;;;;;23.52;16.38;;;8.90;90.20;;;;;;5054635;28;20021;-60
2021/11/28 10:27:02;;;;;;;29.83;17.58;;;8.90;90.20;;;;;;5038316;28;20420;-60
2021/11/28 10:29:31;;;;;;;19.90;13.73;;;8.90;90.30;;;;;;5036551;28;20032;-60
2021/11/28 10:31:59;;;;;;;20.30;13.90;;;8.90;90.30;;;;;;5036378;28;20025;-60
2021/11/28 10:34:27;;;;;;;23.48;14.32;;;8.90;90.60;;;;;;5046741;28;20043;-60
2021/11/28 10:37:03;;;;;;;24.83;14.57;;;8.90;90.70;;;;;;5053877;28;20083;-60
2021/11/28 10:39:35;;;;;;;27.30;10.93;;;9.00;90.60;;;;;;5053825;28;20053;-60
2021/11/28 10:42:00;;;;;;;24.88;10.82;;;8.90;90.30;;;;;;5055760;28;20073;-60
2021/11/28 10:44:26;;;;;;;17.95;11.40;;;8.90;90.30;;;;;;5055105;28;20063;-60
2021/11/28 10:47:04;;;;;;;30.90;11.07;;;8.80;90.50;;;;;;5048555;28;20033;-60
2021/11/28 10:49:29;;;;;;;17.17;8.88;;;8.80;90.40;;;;;;5052012;28;20056;-59
2021/11/28 10:52:07;;;;;;;16.20;9.35;;;8.80;90.40;;;;;;5055768;28;20497;-60
2021/11/28 10:54:41;;;;;;;33.67;11.95;;;8.80;90.50;;;;;;5038522;28;20072;-60
2021/11/28 10:57:07;;;;;;;22.70;10.93;;;8.80;90.40;;;;;;5044611;28;20021;-60
2021/11/28 10:59:34;;;;;;;19.20;10.57;;;8.80;90.40;;;;;;5055604;28;20025;-60
2021/11/28 11:01:59;;;;;;;22.15;11.13;;;8.80;90.40;;;;;;5038322;28;20037;-60
2021/11/28 11:04:29;;;;;;;19.08;10.75;;;8.70;90.50;;;;;;5046078;28;20025;-59
2021/11/28 11:07:09;;;;;;;24.10;11.50;;;8.70;90.70;;;;;;5053967;28;20029;-62
2021/11/28 11:09:44;;;;;;;31.10;11.48;;;8.70;90.60;;;;;;5055133;28;20070;-60
2021/11/28 11:12:35;;;;;;;23.83;11.35;;;8.70;90.90;;;;;;5055226;28;20369;-60
2021/11/28 11:15:01;;;;;;;32.55;11.82;;;8.70;91.00;;;;;;5035458;28;20029;-60
2021/11/28 11:17:34;;;;;;;23.58;10.38;;;8.70;91.00;;;;;;5039335;28;20017;-60
2021/11/28 11:20:00;;;;;;;28.33;11.43;;;8.70;90.80;;;;;;5055538;28;20460;-60
2021/11/28 11:22:31;;;;;;;21.48;11.27;;;8.60;90.70;;;;;;5055063;28;20029;-59
2021/11/28 11:24:58;;;;;;;29.50;11.20;;;8.60;90.90;;;;;;5045891;28;20033;-60
2021/11/28 11:27:36;;;;;;;20.45;11.23;;;8.60;91.10;;;;;;5035348;28;20443;-60
2021/11/28 11:30:04;;;;;;;42.13;18.27;;;8.60;91.10;;;;;;5035024;28;20021;-60
2021/11/28 11:32:45;;;;;;;39.35;13.48;;;8.60;91.30;;;;;;5034992;28;20025;-60
2021/11/28 11:35:18;;;;;;;22.73;11.93;;;8.60;91.20;;;;;;5035134;28;20053;-60
2021/11/28 11:37:44;;;;;;;25.05;10.82;;;8.60;91.60;;;;;;5054707;28;20064;-60
2021/11/28 11:40:13;;;;;;;26.77;10.63;;;8.50;91.30;;;;;;5054818;28;20029;-59
2021/11/28 11:42:42;;;;;;;39.10;12.50;;;8.50;91.30;;;;;;5054172;28;20146;-60
2021/11/28 11:45:10;;;;;;;35.47;11.88;;;8.50;91.50;;;;;;5054718;28;20021;-60
2021/11/28 11:47:36;;;;;;;31.10;12.23;;;8.40;91.70;;;;;;5054723;28;20025;-60
2021/11/28 11:50:03;;;;;;;39.03;11.15;;;8.40;91.70;;;;;;5054649;28;20021;-60
2021/11/28 11:52:29;;;;;;;26.92;11.65;;;8.40;91.90;;;;;;5054522;28;20025;-60
2021/11/28 11:55:08;;;;;;;23.80;10.85;;;8.40;91.90;;;;;;5048150;28;20415;-60
2021/11/28 11:57:38;;;;;;;20.88;10.38;;;8.40;91.70;;;;;;5052861;28;20064;-60
2021/11/28 12:00:07;;;;;;;21.83;11.05;;;8.30;92.00;;;;;;5053636;28;20032;-60
2021/11/28 12:02:42;;;;;;;18.48;11.05;;;8.30;92.10;;;;;;5053429;28;20036;-59
2021/11/28 12:05:26;;;;;;;12.63;9.20;;;8.20;92.00;;;;;;5047990;28;20025;-60
2021/11/28 12:07:54;;;;;;;16.27;10.07;;;8.20;92.20;;;;;;5047091;28;20029;-60
2021/11/28 12:10:49;;;;;;;15.10;11.18;;;8.20;92.30;;;;;;5050768;28;20037;-60
2021/11/28 12:13:27;;;;;;;13.55;10.50;;;8.20;92.00;;;;;;5016117;28;20033;-60
2021/11/28 12:15:55;;;;;;;13.55;10.60;;;8.20;92.20;;;;;;5033690;28;20025;-60
2021/11/28 12:18:41;;;;;;;11.82;9.55;;;8.20;92.40;;;;;;5034293;28;20033;-60
2021/11/28 12:21:19;;;;;;;11.82;9.10;;;8.20;92.30;;;;;;5034173;28;20037;-60
2021/11/28 12:24:01;;;;;;;13.32;10.48;;;8.20;92.50;;;;;;5043693;28;20071;-60
2021/11/28 12:26:30;;;;;;;12.18;9.77;;;8.20;92.40;;;;;;5034224;28;20064;-59
2021/11/28 12:28:57;;;;;;;14.05;10.25;;;8.20;92.40;;;;;;5034052;28;20026;-60
2021/11/28 12:31:34;;;;;;;13.75;10.68;;;8.20;92.40;;;;;;5034601;28;20071;-60
2021/11/28 12:34:08;;;;;;;13.57;10.25;;;8.20;92.40;;;;;;5033950;28;20101;-60
2021/11/28 12:36:34;;;;;;;14.05;10.70;;;8.10;92.60;;;;;;5044222;28;20468;-59
2021/11/28 12:39:25;;;;;;;14.20;11.13;;;8.10;92.90;;;;;;5048475;28;20111;-60
2021/11/28 12:42:09;;;;;;;14.30;11.43;;;8.10;93.10;;;;;;5030465;28;20049;-60
2021/11/28 12:44:57;;;;;;;15.65;12.50;;;8.10;93.10;;;;;;5034066;28;20500;-59
2021/11/28 12:47:30;;;;;;;15.02;10.77;;;8.10;93.20;;;;;;5036187;28;20029;-60
2021/11/28 12:50:16;;;;;;;14.77;10.80;;;8.20;93.20;;;;;;5042514;28;20036;-60